^^
B2 Weather Station Historical Data
Daily Summary for December 18, 2018 Units:  English    Metric   Both
Daily Weekly Monthly Yearly Custom
  High: Low: Average:
Temperature: 42.9 °F 24.3 °F 32.2 °F
Dew Point: 34.4 °F 21.8 °F 28.2 °F
Humidity: 93% 69% 85%
Wind Speed: 10.4mph 0mph 2.8mph
Wind Gust: 6.6mph - -
Wind- - South
Pressure: 30.29 in 30.04 in -
Precipitation: 0 in    
Historical Graphs
 
 
Tabular Data for December 18, 2018
Time Temperature Dew Point Pressure Wind Wind Speed Wind Gust Humidity Rainfall Rate (Hourly) solar
00:04 27.6 °F 24.5 °F 30.24 in Calm     88% 0 in 0.00 W/m2
00:09 27.7 °F 24.9 °F 30.24 in Calm     89% 0 in 0.00 W/m2
00:14 27.8 °F 24.7 °F 30.24 in Calm     88% 0 in 0.00 W/m2
00:19 27.4 °F 24 °F 30.24 in Calm     87% 0 in 0.00 W/m2
00:24 27.2 °F 23.8 °F 30.24 in Calm     87% 0 in 0.00 W/m2
00:29 27.1 °F 24 °F 30.24 in Calm     88% 0 in 0.00 W/m2
00:34 27.1 °F 24 °F 30.24 in Calm     88% 0 in 0.00 W/m2
00:39 27 °F 23.6 °F 30.25 in Calm     87% 0 in 0.00 W/m2
00:44 26.9 °F 23.5 °F 30.24 in Calm     87% 0 in 0.00 W/m2
00:49 26.9 °F 23.5 °F 30.24 in Calm     87% 0 in 0.00 W/m2
00:54 26.9 °F 23.5 °F 30.25 in Calm     87% 0 in 0.00 W/m2
00:59 26.9 °F 23.5 °F 30.25 in Calm     87% 0 in 0.00 W/m2
01:04 26.8 °F 23.2 °F 30.25 in Calm     86% 0 in 0.00 W/m2
01:09 26.7 °F 23.1 °F 30.25 in Calm     86% 0 in 0.00 W/m2
01:14 26.7 °F 23.1 °F 30.25 in Calm     86% 0 in 0.00 W/m2
01:19 26.6 °F 23 °F 30.25 in Calm     86% 0 in 0.00 W/m2
01:24 26.7 °F 23.4 °F 30.25 in Calm     87% 0 in 0.00 W/m2
01:29 26.9 °F 23.5 °F 30.25 in Calm     87% 0 in 0.00 W/m2
01:34 26.9 °F 23.5 °F 30.25 in Calm     87% 0 in 0.00 W/m2
01:39 26.9 °F 23.5 °F 30.25 in Calm     87% 0 in 0.00 W/m2
01:44 27.1 °F 24 °F 30.25 in Calm     88% 0 in 0.00 W/m2
01:49 27.2 °F 24.1 °F 30.26 in Calm     88% 0 in 0.00 W/m2
01:54 27.2 °F 24.1 °F 30.26 in Calm     88% 0 in 0.00 W/m2
01:59 27.1 °F 24 °F 30.26 in Calm     88% 0 in 0.00 W/m2
02:04 26.7 °F 23.4 °F 30.26 in Calm     87% 0 in 0.00 W/m2
02:09 26.4 °F 23.1 °F 30.26 in Calm     87% 0 in 0.00 W/m2
02:14 26.2 °F 22.9 °F 30.26 in Calm     87% 0 in 0.00 W/m2
02:19 25.9 °F 22.6 °F 30.27 in Calm     87% 0 in 0.00 W/m2
02:24 26 °F 22.9 °F 30.27 in Calm     88% 0 in 0.00 W/m2
02:29 26 °F 23.2 °F 30.27 in Calm     89% 0 in 0.00 W/m2
02:34 25.9 °F 22.8 °F 30.27 in Calm     88% 0 in 0.00 W/m2
02:39 25.9 °F 23.1 °F 30.27 in Calm     89% 0 in 0.00 W/m2
02:44 26 °F 23.2 °F 30.27 in Calm     89% 0 in 0.00 W/m2
02:49 26.1 °F 23.6 °F 30.27 in Calm     90% 0 in 0.00 W/m2
02:54 26 °F 23.2 °F 30.27 in Calm     89% 0 in 0.00 W/m2
02:59 26 °F 23.5 °F 30.27 in Calm     90% 0 in 0.00 W/m2
03:04 25.8 °F 23 °F 30.27 in Calm     89% 0 in 0.00 W/m2
03:09 25.4 °F 22.6 °F 30.27 in Calm     89% 0 in 0.00 W/m2
03:14 25.3 °F 22.5 °F 30.27 in Calm     89% 0 in 0.00 W/m2
03:19 25.2 °F 22.4 °F 30.27 in Calm     89% 0 in 0.00 W/m2
03:24 25.1 °F 22.3 °F 30.27 in Calm     89% 0 in 0.00 W/m2
03:29 25.1 °F 22.6 °F 30.27 in Calm     90% 0 in 0.00 W/m2
03:34 25.2 °F 22.7 °F 30.27 in Calm     90% 0 in 0.00 W/m2
03:39 25.1 °F 22.6 °F 30.27 in Calm     90% 0 in 0.00 W/m2
03:44 25.1 °F 22.6 °F 30.27 in Calm     90% 0 in 0.00 W/m2
03:49 25.1 °F 22.6 °F 30.27 in Calm     90% 0 in 0.00 W/m2
03:54 25.1 °F 22.6 °F 30.27 in Calm     90% 0 in 0.00 W/m2
03:59 25.1 °F 22.6 °F 30.26 in Calm     90% 0 in 0.00 W/m2
04:04 25.2 °F 22.7 °F 30.26 in Calm     90% 0 in 0.00 W/m2
04:09 25.2 °F 22.7 °F 30.26 in Calm     90% 0 in 0.00 W/m2
04:14 25.2 °F 22.4 °F 30.26 in Calm     89% 0 in 0.00 W/m2
04:19 24.9 °F 22.1 °F 30.26 in Calm     89% 0 in 0.00 W/m2
04:24 25 °F 22.2 °F 30.26 in Calm     89% 0 in 0.00 W/m2
04:29 25.2 °F 22.7 °F 30.27 in Calm     90% 0 in 0.00 W/m2
04:34 25.4 °F 22.9 °F 30.27 in Calm     90% 0 in 0.00 W/m2
04:39 25.6 °F 23.1 °F 30.27 in Calm     90% 0 in 0.00 W/m2
04:44 25.8 °F 23.3 °F 30.27 in Calm     90% 0 in 0.00 W/m2
04:49 25.8 °F 23.3 °F 30.27 in Calm     90% 0 in 0.00 W/m2
04:54 25.6 °F 23.1 °F 30.27 in Calm     90% 0 in 0.00 W/m2
04:59 25.2 °F 22.7 °F 30.27 in Calm     90% 0 in 0.00 W/m2
05:04 24.9 °F 22.4 °F 30.27 in Calm     90% 0 in 0.00 W/m2
05:09 24.7 °F 22.4 °F 30.27 in Calm     91% 0 in 0.00 W/m2
05:14 24.5 °F 22.2 °F 30.27 in Calm     91% 0 in 0.00 W/m2
05:19 24.4 °F 22.2 °F 30.27 in Calm     91% 0 in 0.00 W/m2
05:24 24.3 °F 21.8 °F 30.27 in Calm     90% 0 in 0.00 W/m2
05:29 24.3 °F 22.1 °F 30.27 in Calm     91% 0 in 0.00 W/m2
05:34 24.5 °F 22.2 °F 30.27 in Calm     91% 0 in 0.00 W/m2
05:39 24.6 °F 22.3 °F 30.27 in Calm     91% 0 in 0.00 W/m2
05:44 24.6 °F 22.3 °F 30.27 in Calm     91% 0 in 0.00 W/m2
05:49 24.7 °F 22.4 °F 30.28 in Calm     91% 0 in 0.00 W/m2
05:54 24.6 °F 22.3 °F 30.28 in Calm     91% 0 in 0.00 W/m2
05:59 24.6 °F 22.3 °F 30.27 in Calm     91% 0 in 0.00 W/m2
06:04 24.5 °F 22.2 °F 30.27 in Calm     91% 0 in 0.00 W/m2
06:09 24.5 °F 22.2 °F 30.27 in Calm     91% 0 in 0.00 W/m2
06:14 24.6 °F 22.3 °F 30.28 in Calm     91% 0 in 0.00 W/m2
06:19 24.6 °F 22.3 °F 30.28 in Calm     91% 0 in 0.00 W/m2
06:24 24.5 °F 22.2 °F 30.28 in Calm     91% 0 in 0.00 W/m2
06:29 24.5 °F 22.2 °F 30.28 in Calm     91% 0 in 0.00 W/m2
06:34 24.5 °F 22.2 °F 30.27 in Calm     91% 0 in 0.00 W/m2
06:39 24.5 °F 22.2 °F 30.27 in Calm     91% 0 in 0.00 W/m2
06:44 24.5 °F 22.2 °F 30.27 in Calm     91% 0 in 0.00 W/m2
06:49 24.5 °F 22.2 °F 30.27 in Calm     91% 0 in 0.00 W/m2
06:54 24.5 °F 22.2 °F 30.27 in Calm     91% 0 in 0.00 W/m2
06:59 24.6 °F 22.3 °F 30.27 in Calm     91% 0 in 0.00 W/m2
07:04 24.6 °F 22.3 °F 30.27 in Calm     91% 0 in 0.00 W/m2
07:09 24.6 °F 22.3 °F 30.27 in Calm     91% 0 in 0.00 W/m2
07:14 24.5 °F 22.2 °F 30.27 in Calm     91% 0 in 5.00 W/m2
07:19 24.5 °F 22.2 °F 30.27 in Calm     91% 0 in 9.00 W/m2
07:24 24.6 °F 22.3 °F 30.27 in Calm     91% 0 in 11.00 W/m2
07:29 24.8 °F 22.5 °F 30.27 in Calm     91% 0 in 14.00 W/m2
07:34 24.9 °F 22.6 °F 30.27 in Calm     91% 0 in 16.00 W/m2
07:39 25.2 °F 23.2 °F 30.28 in Calm     92% 0 in 21.00 W/m2
07:44 25.6 °F 23.6 °F 30.28 in SSW 1.2 mph 0.6 mph 92% 0 in 28.00 W/m2
07:49 26.2 °F 24.2 °F 30.28 in SSW 1.2 mph 0.2 mph 92% 0 in 42.00 W/m2
07:54 26.7 °F 24.7 °F 30.28 in Calm     92% 0 in 54.00 W/m2
07:59 27.2 °F 25.4 °F 30.28 in SSW 2.3 mph 1.1 mph 93% 0 in 65.00 W/m2
08:04 27.6 °F 25.6 °F 30.28 in South 2.3 mph 0.7 mph 92% 0 in 83.00 W/m2
08:09 27.9 °F 26.1 °F 30.28 in SSE 3.5 mph 1.4 mph 93% 0 in 98.00 W/m2
08:14 28.3 °F 26.5 °F 30.28 in Calm     93% 0 in 113.00 W/m2
08:19 28.6 °F 26.8 °F 30.28 in SSE 1.2 mph   93% 0 in 130.00 W/m2
08:24 29.1 °F 27.3 °F 30.28 in Calm     93% 0 in 155.00 W/m2
08:29 29.5 °F 27.7 °F 30.28 in Calm     93% 0 in 172.00 W/m2
08:34 30 °F 28.2 °F 30.28 in SSE 2.3 mph 0.4 mph 93% 0 in 190.00 W/m2
08:39 30.3 °F 28.3 °F 30.28 in South 1.2 mph 0.1 mph 92% 0 in 207.00 W/m2
08:44 30.8 °F 29 °F 30.28 in SSE 2.3 mph 0.9 mph 93% 0 in 223.00 W/m2
08:49 31.3 °F 29.2 °F 30.28 in SSE 3.5 mph 2.1 mph 92% 0 in 239.00 W/m2
08:54 31.7 °F 29.6 °F 30.29 in SSE 3.5 mph 1.3 mph 92% 0 in 246.00 W/m2
08:59 32.1 °F 30 °F 30.29 in SSE 4 mph 2.6 mph 92% 0 in 250.00 W/m2
09:04 32.5 °F 30.4 °F 30.29 in SSE 7 mph 2.2 mph 92% 0 in 253.00 W/m2
09:09 32.7 °F 30.4 °F 30.28 in SSE 5.8 mph 2.6 mph 91% 0 in 255.00 W/m2
09:14 32.8 °F 30.2 °F 30.29 in South 5.8 mph 4.3 mph 90% 0 in 237.00 W/m2
09:19 33.2 °F 30.9 °F 30.28 in SSE 5.8 mph 3.9 mph 91% 0 in 292.00 W/m2
09:24 33.7 °F 31.4 °F 30.28 in SSE 6.9 mph 4.1 mph 91% 0 in 297.00 W/m2
09:29 33.9 °F 31.3 °F 30.28 in SSE 6.9 mph 3.7 mph 90% 0 in 287.00 W/m2
09:34 34.2 °F 31.3 °F 30.28 in South 4.6 mph 4.1 mph 89% 0 in 308.00 W/m2
09:39 34.4 °F 31.5 °F 30.29 in SSE 4.6 mph 3.6 mph 89% 0 in 318.00 W/m2
09:44 34.9 °F 32 °F 30.29 in SSE 7 mph 5.1 mph 89% 0 in 329.00 W/m2
09:49 34.8 °F 31.3 °F 30.29 in SSE 8.1 mph 3.1 mph 87% 0 in 343.00 W/m2
09:54 35.1 °F 31.6 °F 30.29 in South 6.9 mph 3 mph 87% 0 in 336.00 W/m2
09:59 35.5 °F 32.3 °F 30.29 in SSE 6 mph 4 mph 88% 0 in 355.00 W/m2
10:04 35.9 °F 32.4 °F 30.29 in SSE 5.8 mph 3.4 mph 87% 0 in 364.00 W/m2
10:09 36.3 °F 32.5 °F 30.29 in SSE 8.1 mph 3.3 mph 86% 0 in 380.00 W/m2
10:14 36.4 °F 32.6 °F 30.29 in SSE 7 mph 4.6 mph 86% 0 in 374.00 W/m2
10:19 36.5 °F 32.4 °F 30.28 in SSE 7 mph 4.3 mph 85% 0 in 388.00 W/m2
10:24 36.7 °F 32.6 °F 30.28 in SSE 8.1 mph 4.1 mph 85% 0 in 401.00 W/m2
10:29 36.8 °F 32.4 °F 30.28 in SE 6.9 mph 4.2 mph 84% 0 in 360.00 W/m2
10:34 36.9 °F 32.5 °F 30.28 in North 6.9 mph 2.8 mph 84% 0 in 385.00 W/m2
10:39 37.3 °F 32.9 °F 30.27 in SSE 5 mph 4 mph 84% 0 in 410.00 W/m2
10:44 37.6 °F 33.2 °F 30.27 in SSE 4.6 mph 4 mph 84% 0 in 424.00 W/m2
10:49 37.9 °F 33.5 °F 30.27 in SSE 5.8 mph 3.8 mph 84% 0 in 420.00 W/m2
10:54 38 °F 33 °F 30.26 in SSE 5.8 mph 4.6 mph 82% 0 in 431.00 W/m2
10:59 38.3 °F 33.3 °F 30.26 in SSE 6.9 mph 2.4 mph 82% 0 in 443.00 W/m2
11:04 38.4 °F 33.1 °F 30.25 in SSE 8.1 mph 5.2 mph 81% 0 in 432.00 W/m2
11:09 38.4 °F 33.1 °F 30.25 in SSE 6.9 mph 4.5 mph 81% 0 in 438.00 W/m2
11:14 38.8 °F 33.5 °F 30.25 in SSE 5.8 mph 2.6 mph 81% 0 in 455.00 W/m2
11:19 38.9 °F 33.6 °F 30.24 in SE 7 mph 3.4 mph 81% 0 in 454.00 W/m2
11:24 39 °F 33.4 °F 30.24 in SE 6.9 mph 3.6 mph 80% 0 in 446.00 W/m2
11:29 39.2 °F 33.9 °F 30.23 in SSE 9.2 mph 5.6 mph 81% 0 in 446.00 W/m2
11:34 39.5 °F 33.8 °F 30.23 in SSE 5.8 mph 2.9 mph 80% 0 in 448.00 W/m2
11:39 39.7 °F 33.7 °F 30.23 in SE 7 mph 4.6 mph 79% 0 in 446.00 W/m2
11:44 39.7 °F 33.7 °F 30.23 in SE 6.9 mph 2.8 mph 79% 0 in 448.00 W/m2
11:49 39.8 °F 33.8 °F 30.22 in SSE 5 mph 1.5 mph 79% 0 in 446.00 W/m2
11:54 40.1 °F 33.8 °F 30.22 in South 6.9 mph 4.1 mph 78% 0 in 445.00 W/m2
11:59 40.1 °F 33.8 °F 30.22 in SSE 5.8 mph 4.6 mph 78% 0 in 443.00 W/m2
12:04 40.3 °F 34 °F 30.22 in SSE 4.6 mph 3.5 mph 78% 0 in 441.00 W/m2
12:09 40.5 °F 34.2 °F 30.22 in South 5.8 mph 4.7 mph 78% 0 in 439.00 W/m2
12:14 40.5 °F 33.5 °F 30.21 in South 6.9 mph 4.6 mph 76% 0 in 439.00 W/m2
12:19 40.2 °F 33.2 °F 30.21 in SSE 6 mph 4.2 mph 76% 0 in 436.00 W/m2
12:24 40.4 °F 33.8 °F 30.20 in SSE 6.9 mph 3.3 mph 77% 0 in 432.00 W/m2
12:29 40.5 °F 33.5 °F 30.20 in SSE 10.4 mph 3.6 mph 76% 0 in 429.00 W/m2
12:34 40.5 °F 33.5 °F 30.20 in SSE 6 mph 4.3 mph 76% 0 in 425.00 W/m2
12:39 40.8 °F 33.8 °F 30.19 in North 9.2 mph 6.6 mph 76% 0 in 424.00 W/m2
12:44 40.8 °F 33.5 °F 30.19 in SSE 6.9 mph 4.7 mph 75% 0 in 418.00 W/m2
12:49 40.8 °F 33.8 °F 30.19 in SSE 5.8 mph 5 mph 76% 0 in 417.00 W/m2
12:54 41.1 °F 34.1 °F 30.18 in South 8.1 mph 3.9 mph 76% 0 in 411.00 W/m2
12:59 41.1 °F 33.8 °F 30.18 in SSE 9.2 mph 4.8 mph 75% 0 in 404.00 W/m2
13:04 41.3 °F 34 °F 30.18 in North 3.5 mph 2.7 mph 75% 0 in 399.00 W/m2
13:09 41.6 °F 34.3 °F 30.18 in South 8.1 mph 4 mph 75% 0 in 392.00 W/m2
13:14 41.6 °F 34.3 °F 30.18 in SSE 6.9 mph 4.3 mph 75% 0 in 385.00 W/m2
13:20 41.6 °F 34.3 °F 30.17 in SSE 6 mph 4.1 mph 75% 0 in 380.00 W/m2
13:24 41.6 °F 34.3 °F 30.17 in North 5.8 mph 2.9 mph 75% 0 in 373.00 W/m2
13:29 41.7 °F 34.4 °F 30.17 in North 6.9 mph 4.9 mph 75% 0 in 362.00 W/m2
13:34 42 °F 34.3 °F 30.17 in South 5.8 mph 3.5 mph 74% 0 in 359.00 W/m2
13:39 42.3 °F 34.3 °F 30.17 in SSW 4.6 mph 1.3 mph 73% 0 in 350.00 W/m2
13:44 42.5 °F 34.1 °F 30.17 in North 2.3 mph 0.3 mph 72% 0 in 343.00 W/m2
13:49 42.8 °F 33.3 °F 30.17 in SSW 8.1 mph 5.4 mph 69% 0 in 330.00 W/m2
13:54 42.7 °F 33.9 °F 30.17 in SSE 3.5 mph 3.3 mph 71% 0 in 325.00 W/m2
13:59 42.5 °F 34.1 °F 30.17 in SSE 4 mph 1.8 mph 72% 0 in 316.00 W/m2
14:04 42.5 °F 33.8 °F 30.17 in SSW 3.5 mph   71% 0 in 309.00 W/m2
14:09 42.7 °F 33.6 °F 30.17 in South 6 mph 4.1 mph 70% 0 in 299.00 W/m2
14:14 42.9 °F 33.4 °F 30.17 in SSW 5.8 mph 2.1 mph 69% 0 in 290.00 W/m2
14:19 42.8 °F 34 °F 30.17 in South 3.5 mph 2 mph 71% 0 in 279.00 W/m2
14:24 42.6 °F 33.5 °F 30.16 in South 4.6 mph 2 mph 70% 0 in 265.00 W/m2
14:29 42.8 °F 33.7 °F 30.16 in South 5.8 mph 2.9 mph 70% 0 in 253.00 W/m2
14:34 42.7 °F 33.6 °F 30.17 in SSW 8.1 mph 3.7 mph 70% 0 in 241.00 W/m2
14:39 42.7 °F 33.6 °F 30.16 in South 9.2 mph 2.7 mph 70% 0 in 227.00 W/m2
14:44 42.4 °F 33.3 °F 30.16 in South 6.9 mph 4.8 mph 70% 0 in 214.00 W/m2
14:49 42.1 °F 33.4 °F 30.16 in North 7 mph 4.1 mph 71% 0 in 197.00 W/m2
14:54 41.8 °F 33.8 °F 30.16 in North 3.5 mph 0.7 mph 73% 0 in 181.00 W/m2
14:59 41.6 °F 33.6 °F 30.17 in South 6.9 mph 3.8 mph 73% 0 in 165.00 W/m2
15:04 41.5 °F 33.8 °F 30.16 in North 3.5 mph 1.7 mph 74% 0 in 151.00 W/m2
15:09 41.4 °F 33.7 °F 30.16 in SSE 3.5 mph 0.3 mph 74% 0 in 134.00 W/m2
15:14 41.2 °F 33.5 °F 30.16 in SSW 3.5 mph 0.8 mph 74% 0 in 123.00 W/m2
15:19 41.1 °F 33.8 °F 30.16 in SSW 3 mph 1.3 mph 75% 0 in 109.00 W/m2
15:24 41 °F 33.7 °F 30.16 in South 5 mph 2.9 mph 75% 0 in 95.00 W/m2
15:29 40.6 °F 33.3 °F 30.16 in South 5.8 mph 4.7 mph 75% 0 in 39.00 W/m2
15:34 40.4 °F 33.4 °F 30.16 in South 7 mph 5.4 mph 76% 0 in 23.00 W/m2
15:39 40.1 °F 33.5 °F 30.16 in South 6 mph 5 mph 77% 0 in 21.00 W/m2
15:44 39.8 °F 33.5 °F 30.16 in SSE 4.6 mph 3.8 mph 78% 0 in 19.00 W/m2
15:49 39.6 °F 33.3 °F 30.15 in South 4.6 mph 3.3 mph 78% 0 in 19.00 W/m2
15:54 39.3 °F 33.3 °F 30.15 in South 4.6 mph 3.5 mph 79% 0 in 18.00 W/m2
15:59 39.1 °F 33.1 °F 30.16 in South 3.5 mph 2.6 mph 79% 0 in 16.00 W/m2
16:04 38.8 °F 32.8 °F 30.16 in South 5.8 mph 2.3 mph 79% 0 in 14.00 W/m2
16:09 38.6 °F 33 °F 30.16 in SSW 3.5 mph 2.5 mph 80% 0 in 12.00 W/m2
16:14 38.3 °F 32.7 °F 30.16 in South 3.5 mph 1.7 mph 80% 0 in 11.00 W/m2
16:19 37.9 °F 32.3 °F 30.15 in South 2.3 mph 1.7 mph 80% 0 in 7.00 W/m2
16:24 37.5 °F 32.2 °F 30.15 in North 3.5 mph 2 mph 81% 0 in 5.00 W/m2
16:29 37.2 °F 31.9 °F 30.15 in South 3 mph 1.9 mph 81% 0 in 0.00 W/m2
16:34 36.9 °F 31.9 °F 30.15 in South 3.5 mph 1.1 mph 82% 0 in 0.00 W/m2
16:39 36.5 °F 31.5 °F 30.15 in South 3.5 mph 1 mph 82% 0 in 0.00 W/m2
16:44 36.2 °F 31.2 °F 30.15 in Calm     82% 0 in 0.00 W/m2
16:49 36 °F 31.3 °F 30.15 in South 2.3 mph 0.3 mph 83% 0 in 0.00 W/m2
16:54 35.7 °F 31 °F 30.15 in South 1.2 mph 0.3 mph 83% 0 in 0.00 W/m2
16:59 35.6 °F 31.2 °F 30.15 in South 2.3 mph   84% 0 in 0.00 W/m2
17:04 35.5 °F 31.1 °F 30.15 in Calm     84% 0 in 0.00 W/m2
17:09 35.2 °F 30.9 °F 30.15 in Calm     84% 0 in 0.00 W/m2
17:14 34.9 °F 30.3 °F 30.15 in Calm     83% 0 in 0.00 W/m2
17:19 34.6 °F 30.3 °F 30.14 in Calm     84% 0 in 0.00 W/m2
17:24 34.1 °F 30.1 °F 30.14 in Calm     85% 0 in 0.00 W/m2
17:29 33.9 °F 29.9 °F 30.14 in Calm     85% 0 in 0.00 W/m2
17:34 33.8 °F 30.1 °F 30.14 in Calm     86% 0 in 0.00 W/m2
17:39 33.6 °F 29.9 °F 30.14 in Calm     86% 0 in 0.00 W/m2
17:44 33.2 °F 29.5 °F 30.14 in South 3.5 mph 1 mph 86% 0 in 0.00 W/m2
17:49 33.1 °F 29.7 °F 30.13 in South 2.3 mph 0.8 mph 87% 0 in 0.00 W/m2
17:54 33 °F 29.6 °F 30.14 in South 2.3 mph 1.4 mph 87% 0 in 0.00 W/m2
17:59 33 °F 29.8 °F 30.14 in South 2.3 mph 0.9 mph 88% 0 in 0.00 W/m2
18:04 33.2 °F 30 °F 30.14 in South 3.5 mph 1.4 mph 88% 0 in 0.00 W/m2
18:09 33.2 °F 30 °F 30.14 in South 2.3 mph 1 mph 88% 0 in 0.00 W/m2
18:14 33.1 °F 29.9 °F 30.14 in South 2.3 mph 0.4 mph 88% 0 in 0.00 W/m2
18:19 33.1 °F 29.9 °F 30.14 in South 3.5 mph 2.2 mph 88% 0 in 0.00 W/m2
18:24 33.2 °F 30.3 °F 30.14 in South 3.5 mph 1.6 mph 89% 0 in 0.00 W/m2
18:29 33.2 °F 30 °F 30.13 in South 3.5 mph 2.1 mph 88% 0 in 0.00 W/m2
18:34 33.2 °F 30.3 °F 30.13 in South 2.3 mph 1.9 mph 89% 0 in 0.00 W/m2
18:39 33.1 °F 29.9 °F 30.13 in South 3.5 mph 2.1 mph 88% 0 in 0.00 W/m2
18:44 33 °F 29.8 °F 30.13 in SSE 3.5 mph 1.7 mph 88% 0 in 0.00 W/m2
18:49 32.8 °F 29.6 °F 30.13 in South 3.5 mph 2.5 mph 88% 0 in 0.00 W/m2
18:54 32.6 °F 29.4 °F 30.13 in SSE 5 mph 3.4 mph 88% 0 in 0.00 W/m2
18:59 32.4 °F 29.2 °F 30.12 in SSE 4.6 mph 3.6 mph 88% 0 in 0.00 W/m2
19:05 32.1 °F 28.9 °F 30.12 in SSE 3.5 mph 1.6 mph 88% 0 in 0.00 W/m2
19:09 32 °F 29.1 °F 30.12 in SSE 4.6 mph 1.9 mph 89% 0 in 0.00 W/m2
19:14 32.2 °F 29.3 °F 30.12 in SSE 5 mph 2.9 mph 89% 0 in 0.00 W/m2
19:19 32.3 °F 29.4 °F 30.12 in SSE 3.5 mph 2.6 mph 89% 0 in 0.00 W/m2
19:24 32.5 °F 29.6 °F 30.12 in SSE 3.5 mph 0.3 mph 89% 0 in 0.00 W/m2
19:29 32.3 °F 29.1 °F 30.12 in South 3.5 mph 0.5 mph 88% 0 in 0.00 W/m2
19:34 32.4 °F 29.5 °F 30.11 in South 5.8 mph 3.8 mph 89% 0 in 0.00 W/m2
19:39 32.6 °F 29.4 °F 30.11 in South 3.5 mph 1.6 mph 88% 0 in 0.00 W/m2
19:45 32.7 °F 29.5 °F 30.11 in South 3.5 mph 2.2 mph 88% 0 in 0.00 W/m2
19:49 32.6 °F 29.4 °F 30.11 in South 3.5 mph 1.7 mph 88% 0 in 0.00 W/m2
19:54 32.6 °F 29.4 °F 30.10 in South 3.5 mph 2.9 mph 88% 0 in 0.00 W/m2
19:59 32.7 °F 29.5 °F 30.10 in South 3.5 mph 2.1 mph 88% 0 in 0.00 W/m2
20:04 32.6 °F 29.2 °F 30.10 in South 4 mph 3.4 mph 87% 0 in 0.00 W/m2
20:09 32.5 °F 29.1 °F 30.09 in SSE 3.5 mph 3.1 mph 87% 0 in 0.00 W/m2
20:14 32.3 °F 28.9 °F 30.09 in South 3.5 mph 2.6 mph 87% 0 in 0.00 W/m2
20:19 32.5 °F 29.3 °F 30.09 in SSE 3.5 mph 2.8 mph 88% 0 in 0.00 W/m2
20:24 32.5 °F 29.3 °F 30.08 in SSE 4.6 mph 3.8 mph 88% 0 in 0.00 W/m2
20:29 32.5 °F 29.3 °F 30.08 in SSE 5 mph 3.7 mph 88% 0 in 0.00 W/m2
20:34 32.8 °F 29.6 °F 30.08 in South 5.8 mph 3.9 mph 88% 0 in 0.00 W/m2
20:39 32.8 °F 29.4 °F 30.07 in South 3.5 mph 2.7 mph 87% 0 in 0.00 W/m2
20:44 32.6 °F 29.2 °F 30.07 in South 4.6 mph 2.1 mph 87% 0 in 0.00 W/m2
20:49 32.3 °F 28.6 °F 30.07 in South 3.5 mph 1.2 mph 86% 0 in 0.00 W/m2
20:54 32.1 °F 28.7 °F 30.07 in South 3.5 mph 2.1 mph 87% 0 in 0.00 W/m2
20:59 32 °F 28.8 °F 30.07 in SSE 4.6 mph 3.5 mph 88% 0 in 0.00 W/m2
21:04 32.5 °F 29.3 °F 30.07 in SSE 4.6 mph 2.9 mph 88% 0 in 0.00 W/m2
21:09 32.5 °F 29.1 °F 30.07 in South 3 mph 1.7 mph 87% 0 in 0.00 W/m2
21:14 32.5 °F 29.1 °F 30.07 in South 4 mph 3.5 mph 87% 0 in 0.00 W/m2
21:19 32.7 °F 29.3 °F 30.07 in South 3.5 mph 2.1 mph 87% 0 in 0.00 W/m2
21:24 32.8 °F 29.1 °F 30.07 in South 3.5 mph 2.7 mph 86% 0 in 0.00 W/m2
21:29 32.7 °F 29 °F 30.07 in South 4 mph 2.1 mph 86% 0 in 0.00 W/m2
21:34 32.6 °F 28.6 °F 30.07 in South 4 mph 2.2 mph 85% 0 in 0.00 W/m2
21:39 32.4 °F 28.4 °F 30.06 in South 3.5 mph 1.4 mph 85% 0 in 0.00 W/m2
21:44 32.1 °F 28.1 °F 30.06 in South 3.5 mph 2.6 mph 85% 0 in 0.00 W/m2
21:49 31.7 °F 28 °F 30.06 in SSE 4 mph 3.3 mph 86% 0 in 0.00 W/m2
21:54 31.5 °F 28.1 °F 30.06 in SSE 4 mph 3.3 mph 87% 0 in 0.00 W/m2
21:59 31.4 °F 28 °F 30.06 in South 4.6 mph 3.4 mph 87% 0 in 0.00 W/m2
22:04 31.1 °F 27.7 °F 30.05 in SSE 4.6 mph 4.2 mph 87% 0 in 0.00 W/m2
22:09 31 °F 27.9 °F 30.05 in SSE 4.6 mph 3.9 mph 88% 0 in 0.00 W/m2
22:14 31.2 °F 28.3 °F 30.05 in South 3.5 mph 2.5 mph 89% 0 in 0.00 W/m2
22:19 31.4 °F 28.3 °F 30.06 in South 4 mph 2.5 mph 88% 0 in 0.00 W/m2
22:24 31.4 °F 28 °F 30.06 in South 3.5 mph 2.8 mph 87% 0 in 0.00 W/m2
22:29 31.3 °F 27.9 °F 30.06 in SSE 3.5 mph 2.3 mph 87% 0 in 0.00 W/m2
22:34 31.1 °F 27.7 °F 30.06 in SSE 3.5 mph 1.8 mph 87% 0 in 0.00 W/m2
22:39 30.9 °F 27.5 °F 30.06 in SSE 2.3 mph 0.3 mph 87% 0 in 0.00 W/m2
22:44 30.8 °F 27.4 °F 30.06 in Calm     87% 0 in 0.00 W/m2
22:49 30.5 °F 26.8 °F 30.06 in SSE 2.3 mph 1.4 mph 86% 0 in 0.00 W/m2
22:54 30.2 °F 26.8 °F 30.05 in SSE 2.3 mph   87% 0 in 0.00 W/m2
22:59 30.3 °F 26.9 °F 30.05 in Calm     87% 0 in 0.00 W/m2
23:04 30.5 °F 27.4 °F 30.05 in Calm     88% 0 in 0.00 W/m2
23:09 30.5 °F 27.1 °F 30.05 in Calm     87% 0 in 0.00 W/m2
23:14 30.4 °F 27 °F 30.05 in Calm     87% 0 in 0.00 W/m2
23:19 30.3 °F 26.9 °F 30.05 in Calm     87% 0 in 0.00 W/m2
23:24 30.2 °F 26.8 °F 30.05 in Calm     87% 0 in 0.00 W/m2
23:29 30.2 °F 26.8 °F 30.04 in Calm     87% 0 in 0.00 W/m2
23:34 30.3 °F 26.9 °F 30.04 in Calm     87% 0 in 0.00 W/m2
23:39 30.3 °F 26.6 °F 30.04 in Calm     86% 0 in 0.00 W/m2
23:44 30.2 °F 26.5 °F 30.04 in Calm     86% 0 in 0.00 W/m2
23:49 30.1 °F 26.4 °F 30.04 in Calm     86% 0 in 0.00 W/m2
23:54 29.9 °F 26.5 °F 30.04 in Calm     87% 0 in 0.00 W/m2
23:59 29.7 °F 26 °F 30.04 in Calm     86% 0 in 0.00 W/m2
Bourbonnais, Illinois, USA
Compliments of Weather Underground - 4 mb